04TE weather

Veterans Affairs Medical Center Heliport
Houston, Texas, United States

Public forecast

Using degrees Fahrenheit for public forecast. Weather courtesy of forecast.io.

METAR (pilot weather report)

Closest report is William P Hobby Airport, 6.5 nm (12.1 km) ESE. Retrieved 2019/09/23 00:27 UTC (0 seconds ago):

KHOU 230027Z 13009KT 10SM SCT025 BKN200 29/24 A2998 RMK AO2 T02890239

TAF (pilot weather forecast)

Forecast is more than 12 hours old.

Closest forecast is William P Hobby Airport, 6.5 nm (12.1 km) ESE. Retrieved 2019/09/22 00:24 UTC (24 hours ago):

TAF KHOU 222321Z 2300/2324 15008KT P6SM SCT025 SCT250 TEMPO 2300/2301 SHRA BKN035 FM231600 16006KT P6SM VCSH SCT025 BKN035 FM232000 15008KT P6SM BKN250